Woodford, Virginia
Current Conditions -  °F | °C
As of 5:35 AM on Sunday 26 Oct 2014 (Local Time) from KEZF Reporting Station
Clear Clear  
Wind Chill: 55°   Ceiling: Unl
Heat Index: 55°   Visibility: 10mi
Dew Point: 45°   Wind: 8mph
Humidity: 68%   Direction: 320°NW
Pressure: 29.75"   Gusts: NA
Location:  38.11°N, 77.44°W
Report Text: KEZF 260935Z AUTO 32007KT 10SM CLR 13/07 A2975 RMK AO2 T01290071
Loading
Personal Weather Stations






























Interactive Weather Map
Tropical Storm Tracking
New forecast layout! Learn more

10-Day Weather Forecast

Advertisements
Track Severe Weather on mobile